Time;durP1;ratioP1;P1;durP2;ratioP2;P2;SDS_P1;SDS_P2;PMS_P1;PMS_P2;Temp;Humidity;BMP_temperature;BMP_pressure;BME280_temperature;BME280_humidity;BME280_pressure;Samples;Min_cycle;Max_cycle;Signal;HPM_P1;HPM_P2
2023/05/06 00:00:21;;;;;;;18.17;5.47;;;;;;;;;;5114572;28;20221;-74
2023/05/06 00:02:48;;;;;;;24.87;5.20;;;;;;;;;;5113982;28;20279;-75
2023/05/06 00:05:17;;;;;;;17.83;4.97;;;;;;;;;;5114803;28;20289;-74
2023/05/06 00:07:45;;;;;;;22.63;5.07;;;;;;;;;;5114277;28;20732;-74
2023/05/06 00:10:12;;;;;;;23.00;4.83;;;;;;;;;;5114163;28;20193;-75
2023/05/06 00:12:39;;;;;;;21.53;5.17;;;;;;;;;;5114494;28;20244;-74
2023/05/06 00:15:07;;;;;;;17.30;4.83;;;;;;;;;;5114295;28;20681;-74
2023/05/06 00:17:34;;;;;;;18.97;4.97;;;;;;;;;;5113742;28;20293;-74
2023/05/06 00:20:02;;;;;;;21.63;5.20;;;;;;;;;;5114325;28;20200;-75
2023/05/06 00:22:31;;;;;;;22.60;5.83;;;;;;;;;;5114383;28;20200;-74
2023/05/06 00:24:58;;;;;;;21.07;5.40;;;;;;;;;;5114415;28;20284;-75
2023/05/06 00:27:25;;;;;;;21.70;5.23;;;;;;;;;;5113881;28;20308;-75
2023/05/06 00:29:53;;;;;;;19.30;5.07;;;;;;;;;;5114221;28;20224;-74
2023/05/06 00:32:20;;;;;;;20.67;6.03;;;;;;;;;;5113634;28;20277;-74
2023/05/06 00:34:47;;;;;;;18.70;5.47;;;;;;;;;;5114458;28;20287;-74
2023/05/06 00:37:14;;;;;;;17.93;5.30;;;;;;;;;;5113681;28;20201;-75
2023/05/06 00:39:43;;;;;;;20.93;5.83;;;;;;;;;;5114220;28;20297;-74
2023/05/06 00:42:10;;;;;;;17.30;5.90;;;;;;;;;;5113780;28;20194;-74
2023/05/06 00:44:37;;;;;;;23.67;5.87;;;;;;;;;;5113678;28;20320;-74
2023/05/06 00:47:05;;;;;;;21.33;5.53;;;;;;;;;;5113289;28;20193;-74
2023/05/06 00:49:32;;;;;;;20.30;5.37;;;;;;;;;;5113695;28;20293;-74
2023/05/06 00:52:00;;;;;;;22.07;5.93;;;;;;;;;;5113466;28;20676;-74
2023/05/06 00:54:28;;;;;;;21.30;6.10;;;;;;;;;;5113748;28;20197;-74
2023/05/06 00:56:57;;;;;;;23.83;5.93;;;;;;;;;;5113998;28;20194;-74
2023/05/06 00:59:24;;;;;;;19.30;5.53;;;;;;;;;;5113743;28;20272;-75
2023/05/06 01:01:52;;;;;;;21.90;5.20;;;;;;;;;;5112927;28;20325;-74
2023/05/06 01:04:20;;;;;;;18.63;5.17;;;;;;;;;;5113623;28;20227;-74
2023/05/06 01:07:03;;;;;;;19.10;5.23;;;;;;;;;;5113420;28;20196;-75
2023/05/06 01:09:35;;;;;;;20.20;5.43;;;;;;;;;;5113252;28;20296;-75
2023/05/06 01:12:07;;;;;;;18.77;5.27;;;;;;;;;;5113022;27;20297;-74
2023/05/06 01:14:39;;;;;;;15.50;4.83;;;;;;;;;;5112917;28;20198;-75
2023/05/06 01:17:09;;;;;;;17.50;5.23;;;;;;;;;;5113305;27;20293;-75
2023/05/06 01:19:40;;;;;;;20.33;5.40;;;;;;;;;;5113091;28;20201;-75
2023/05/06 01:22:08;;;;;;;21.37;5.13;;;;;;;;;;5113135;28;20648;-74
2023/05/06 01:24:38;;;;;;;19.20;5.17;;;;;;;;;;5113347;28;20565;-75
2023/05/06 01:27:05;;;;;;;18.27;5.23;;;;;;;;;;5112868;27;20193;-74
2023/05/06 01:29:32;;;;;;;15.33;5.20;;;;;;;;;;5112412;28;20284;-75
2023/05/06 01:32:08;;;;;;;14.30;4.73;;;;;;;;;;5112812;28;20620;-75
2023/05/06 01:34:39;;;;;;;18.23;4.97;;;;;;;;;;5112832;28;20194;-74
2023/05/06 01:37:09;;;;;;;14.93;4.83;;;;;;;;;;5112578;28;20665;-74
2023/05/06 01:39:39;;;;;;;17.60;5.37;;;;;;;;;;5112962;28;20284;-75
2023/05/06 01:42:07;;;;;;;19.03;5.50;;;;;;;;;;5112770;28;20217;-74
2023/05/06 01:44:36;;;;;;;20.63;5.30;;;;;;;;;;5112174;28;20321;-74
2023/05/06 01:47:03;;;;;;;19.13;5.37;;;;;;;;;;5112388;28;20197;-74
2023/05/06 01:49:31;;;;;;;15.73;5.50;;;;;;;;;;5112569;27;20274;-74
2023/05/06 01:51:58;;;;;;;17.43;5.60;;;;;;;;;;5112725;28;20281;-75
2023/05/06 01:54:25;;;;;;;20.37;5.53;;;;;;;;;;5112746;28;20285;-74
2023/05/06 01:56:54;;;;;;;20.73;5.53;;;;;;;;;;5112686;28;20198;-75
2023/05/06 01:59:21;;;;;;;15.10;6.07;;;;;;;;;;5111864;28;20293;-74
2023/05/06 02:01:48;;;;;;;18.87;5.73;;;;;;;;;;5105395;28;20293;-75
2023/05/06 02:04:15;;;;;;;20.97;5.60;;;;;;;;;;5100943;28;20199;-74
2023/05/06 02:06:42;;;;;;;23.50;5.87;;;;;;;;;;5091826;28;20575;-74
2023/05/06 02:09:10;;;;;;;16.63;5.47;;;;;;;;;;5091610;28;20773;-75
2023/05/06 02:11:37;;;;;;;18.50;5.80;;;;;;;;;;5091804;28;20263;-75
2023/05/06 02:14:05;;;;;;;16.67;4.97;;;;;;;;;;5098923;28;20271;-75
2023/05/06 02:16:32;;;;;;;17.80;5.20;;;;;;;;;;5112009;28;20302;-75
2023/05/06 02:19:00;;;;;;;15.70;5.67;;;;;;;;;;5111841;28;20208;-75
2023/05/06 02:21:27;;;;;;;14.07;5.10;;;;;;;;;;5112179;28;20673;-75
2023/05/06 02:23:54;;;;;;;17.50;5.47;;;;;;;;;;5111706;28;20658;-75
2023/05/06 02:26:21;;;;;;;15.93;4.63;;;;;;;;;;5111806;28;20288;-74
2023/05/06 02:28:48;;;;;;;17.53;4.70;;;;;;;;;;5111473;28;20320;-75
2023/05/06 02:31:17;;;;;;;17.40;5.03;;;;;;;;;;5111542;28;20658;-75
2023/05/06 02:33:45;;;;;;;15.50;5.13;;;;;;;;;;5111719;28;20270;-75
2023/05/06 02:36:12;;;;;;;13.47;5.30;;;;;;;;;;5111903;28;20208;-74
2023/05/06 02:38:39;;;;;;;21.10;5.57;;;;;;;;;;5112077;28;20284;-74
2023/05/06 02:41:07;;;;;;;15.70;5.30;;;;;;;;;;5111621;28;20229;-74
2023/05/06 02:43:34;;;;;;;15.40;5.67;;;;;;;;;;5111255;28;20268;-74
2023/05/06 02:46:01;;;;;;;19.60;4.93;;;;;;;;;;5111763;28;20217;-75
2023/05/06 02:48:29;;;;;;;18.67;5.23;;;;;;;;;;5111888;28;20328;-74
2023/05/06 02:50:57;;;;;;;18.63;5.07;;;;;;;;;;5111875;28;20281;-74
2023/05/06 02:53:24;;;;;;;14.27;5.10;;;;;;;;;;5111620;28;20240;-74
2023/05/06 02:55:51;;;;;;;16.37;5.63;;;;;;;;;;5111817;28;20595;-75
2023/05/06 02:58:18;;;;;;;13.67;4.70;;;;;;;;;;5111204;28;20745;-76
2023/05/06 03:00:45;;;;;;;21.87;5.57;;;;;;;;;;5111227;28;20293;-74
2023/05/06 03:03:12;;;;;;;18.50;5.43;;;;;;;;;;5111622;28;20236;-74
2023/05/06 03:05:41;;;;;;;16.63;4.83;;;;;;;;;;5111919;28;20284;-75
2023/05/06 03:08:08;;;;;;;13.47;4.93;;;;;;;;;;5111483;28;20637;-74
2023/05/06 03:10:35;;;;;;;15.20;5.17;;;;;;;;;;5111292;28;20749;-74
2023/05/06 03:13:02;;;;;;;15.30;5.10;;;;;;;;;;5111267;28;20196;-74
2023/05/06 03:15:30;;;;;;;15.13;5.00;;;;;;;;;;5111591;28;20304;-76
2023/05/06 03:17:58;;;;;;;15.63;5.10;;;;;;;;;;5111630;28;20213;-74
2023/05/06 03:20:26;;;;;;;12.67;4.57;;;;;;;;;;5111596;28;20200;-74
2023/05/06 03:22:54;;;;;;;17.60;5.13;;;;;;;;;;5111314;28;20245;-75
2023/05/06 03:25:21;;;;;;;20.33;5.33;;;;;;;;;;5110783;28;20277;-75
2023/05/06 03:27:48;;;;;;;15.80;5.23;;;;;;;;;;5115281;27;20289;-75
2023/05/06 03:30:16;;;;;;;12.27;4.67;;;;;;;;;;5115503;28;20217;-74
2023/05/06 03:32:43;;;;;;;14.40;4.77;;;;;;;;;;5115511;28;20284;-75
2023/05/06 03:35:10;;;;;;;13.17;4.70;;;;;;;;;;5115502;28;20189;-75
2023/05/06 03:37:37;;;;;;;17.83;4.80;;;;;;;;;;5115154;28;20277;-74
2023/05/06 03:40:07;;;;;;;12.93;5.17;;;;;;;;;;5114655;28;20201;-74
2023/05/06 03:42:34;;;;;;;11.73;4.23;;;;;;;;;;5115388;28;20289;-75
2023/05/06 03:45:01;;;;;;;16.20;4.83;;;;;;;;;;5115132;28;20289;-74
2023/05/06 03:47:29;;;;;;;15.23;5.07;;;;;;;;;;5114663;28;20579;-74
2023/05/06 03:49:56;;;;;;;14.30;4.40;;;;;;;;;;5114803;28;20270;-74
2023/05/06 03:52:23;;;;;;;14.70;4.87;;;;;;;;;;5115502;28;20281;-75
2023/05/06 03:54:50;;;;;;;17.07;4.80;;;;;;;;;;5114287;28;20286;-75
2023/05/06 03:57:19;;;;;;;16.07;4.93;;;;;;;;;;5114758;28;20198;-75
2023/05/06 03:59:46;;;;;;;14.20;4.53;;;;;;;;;;5114794;28;20254;-74
2023/05/06 04:02:13;;;;;;;10.43;4.67;;;;;;;;;;5114560;28;20543;-75
2023/05/06 04:04:40;;;;;;;15.93;4.73;;;;;;;;;;5114633;27;20217;-74
2023/05/06 04:07:07;;;;;;;12.77;4.93;;;;;;;;;;5114510;28;20228;-75
2023/05/06 04:09:34;;;;;;;14.77;4.70;;;;;;;;;;5114152;28;20253;-74
2023/05/06 04:12:03;;;;;;;14.73;4.93;;;;;;;;;;5114590;28;20217;-75
2023/05/06 04:14:31;;;;;;;14.43;4.73;;;;;;;;;;5114308;28;20292;-75
2023/05/06 04:16:58;;;;;;;13.03;4.67;;;;;;;;;;5114821;28;20237;-75
2023/05/06 04:19:26;;;;;;;15.93;4.70;;;;;;;;;;5114309;28;20280;-75
2023/05/06 04:21:53;;;;;;;14.67;5.07;;;;;;;;;;5114434;28;20194;-74
2023/05/06 04:24:21;;;;;;;15.57;4.50;;;;;;;;;;5114275;28;20276;-74
2023/05/06 04:26:48;;;;;;;14.77;4.60;;;;;;;;;;5114138;28;20723;-75
2023/05/06 04:29:16;;;;;;;15.37;4.73;;;;;;;;;;5114187;28;20724;-74
2023/05/06 04:31:45;;;;;;;18.27;4.83;;;;;;;;;;5114352;28;20229;-74
2023/05/06 04:34:12;;;;;;;15.07;4.57;;;;;;;;;;5114093;28;20204;-74
2023/05/06 04:36:39;;;;;;;14.90;5.00;;;;;;;;;;5113402;28;20229;-75
2023/05/06 04:39:07;;;;;;;18.47;4.90;;;;;;;;;;5113355;28;20293;-74
2023/05/06 04:41:34;;;;;;;11.67;4.50;;;;;;;;;;5113709;28;20238;-74
2023/05/06 04:44:02;;;;;;;12.23;4.17;;;;;;;;;;5113355;28;20278;-75
2023/05/06 04:46:29;;;;;;;13.33;4.43;;;;;;;;;;5113670;28;20204;-74
2023/05/06 04:48:58;;;;;;;15.23;4.80;;;;;;;;;;5114168;28;20263;-74
2023/05/06 04:51:25;;;;;;;14.63;4.83;;;;;;;;;;5113658;28;20190;-75
2023/05/06 04:53:53;;;;;;;11.97;4.80;;;;;;;;;;5113210;28;20197;-74
2023/05/06 04:56:20;;;;;;;11.50;4.40;;;;;;;;;;5113574;28;20229;-74
2023/05/06 04:58:47;;;;;;;12.17;4.73;;;;;;;;;;5113616;28;20255;-74
2023/05/06 05:01:14;;;;;;;14.60;5.17;;;;;;;;;;5113611;28;20225;-75
2023/05/06 05:03:41;;;;;;;14.97;4.77;;;;;;;;;;5113258;28;20198;-74
2023/05/06 05:06:12;;;;;;;17.07;4.90;;;;;;;;;;5113587;28;20301;-75
2023/05/06 05:08:39;;;;;;;18.57;5.40;;;;;;;;;;5113153;28;20320;-75
2023/05/06 05:11:06;;;;;;;12.60;4.67;;;;;;;;;;5113356;28;20277;-74
2023/05/06 05:13:33;;;;;;;14.80;5.07;;;;;;;;;;5112957;28;20201;-74
2023/05/06 05:16:00;;;;;;;14.07;4.73;;;;;;;;;;5113636;28;20194;-74
2023/05/06 05:18:28;;;;;;;12.90;4.63;;;;;;;;;;5113490;28;20201;-74
2023/05/06 05:20:55;;;;;;;16.23;4.97;;;;;;;;;;5113025;28;20198;-74
2023/05/06 05:23:24;;;;;;;17.73;4.73;;;;;;;;;;5112526;28;20285;-74
2023/05/06 05:25:51;;;;;;;13.33;4.90;;;;;;;;;;5113099;28;20226;-74
2023/05/06 05:28:19;;;;;;;14.93;4.20;;;;;;;;;;5112803;28;20699;-74
2023/05/06 05:30:46;;;;;;;11.20;4.20;;;;;;;;;;5113297;28;20257;-75
2023/05/06 05:33:13;;;;;;;14.13;5.00;;;;;;;;;;5113122;28;20293;-75
2023/05/06 05:35:40;;;;;;;12.13;4.53;;;;;;;;;;5112678;28;20289;-75
2023/05/06 05:38:07;;;;;;;11.70;3.90;;;;;;;;;;5112778;27;20194;-75
2023/05/06 05:40:36;;;;;;;10.07;4.20;;;;;;;;;;5112782;28;20296;-75
2023/05/06 05:43:03;;;;;;;12.20;4.53;;;;;;;;;;5112592;28;20225;-74
2023/05/06 05:45:30;;;;;;;12.53;4.30;;;;;;;;;;5112708;28;20195;-75
2023/05/06 05:47:57;;;;;;;8.70;3.93;;;;;;;;;;5112201;27;20288;-75
2023/05/06 05:50:25;;;;;;;17.10;5.07;;;;;;;;;;5111557;28;20701;-75
2023/05/06 05:52:52;;;;;;;10.43;3.87;;;;;;;;;;5112949;28;20198;-75
2023/05/06 05:55:19;;;;;;;14.10;4.53;;;;;;;;;;5112546;28;20280;-74
2023/05/06 05:57:48;;;;;;;15.97;4.43;;;;;;;;;;5112566;28;20223;-75
2023/05/06 06:00:15;;;;;;;11.20;3.93;;;;;;;;;;5112527;28;20289;-75
2023/05/06 06:02:42;;;;;;;14.60;4.17;;;;;;;;;;5112156;28;20206;-75
2023/05/06 06:05:10;;;;;;;10.03;4.63;;;;;;;;;;5112166;27;20272;-75
2023/05/06 06:07:37;;;;;;;9.57;3.60;;;;;;;;;;5112358;28;20194;-74
2023/05/06 06:10:04;;;;;;;15.63;4.00;;;;;;;;;;5111969;28;20271;-75
2023/05/06 06:12:31;;;;;;;15.33;4.37;;;;;;;;;;5112087;28;20232;-75
2023/05/06 06:15:00;;;;;;;14.10;4.57;;;;;;;;;;5112476;28;20293;-74
2023/05/06 06:17:27;;;;;;;12.63;3.90;;;;;;;;;;5111952;28;20285;-75
2023/05/06 06:19:56;;;;;;;13.37;4.20;;;;;;;;;;5111785;28;20225;-75
2023/05/06 06:22:23;;;;;;;10.00;4.03;;;;;;;;;;5112089;28;20239;-75
2023/05/06 06:24:50;;;;;;;11.67;3.50;;;;;;;;;;5111787;28;20248;-75
2023/05/06 06:27:17;;;;;;;13.50;4.10;;;;;;;;;;5112141;28;20230;-75
2023/05/06 06:29:45;;;;;;;11.73;4.13;;;;;;;;;;5111821;28;20324;-75
2023/05/06 06:32:14;;;;;;;12.73;3.90;;;;;;;;;;5111600;28;20344;-75
2023/05/06 06:34:42;;;;;;;10.33;4.30;;;;;;;;;;5111215;28;20737;-75
2023/05/06 06:37:10;;;;;;;11.53;3.87;;;;;;;;;;5111817;28;20285;-75
2023/05/06 06:39:37;;;;;;;10.00;3.90;;;;;;;;;;5111812;28;20210;-76
2023/05/06 06:42:05;;;;;;;12.07;3.57;;;;;;;;;;5111869;28;20197;-75
2023/05/06 06:44:33;;;;;;;12.47;3.67;;;;;;;;;;5111590;28;20225;-75
2023/05/06 06:47:01;;;;;;;10.00;3.70;;;;;;;;;;5111499;28;20288;-75
2023/05/06 06:49:30;;;;;;;9.87;3.77;;;;;;;;;;5110759;28;20784;-75
2023/05/06 06:51:58;;;;;;;10.63;3.40;;;;;;;;;;5111720;28;20198;-75
2023/05/06 06:54:25;;;;;;;13.47;3.60;;;;;;;;;;5111818;28;20194;-75
2023/05/06 06:56:54;;;;;;;12.17;3.27;;;;;;;;;;5111540;28;20741;-75
2023/05/06 06:59:21;;;;;;;9.83;3.33;;;;;;;;;;5111556;28;20585;-74
2023/05/06 07:01:49;;;;;;;10.57;3.53;;;;;;;;;;5115790;28;20628;-74
2023/05/06 07:04:16;;;;;;;8.67;3.43;;;;;;;;;;5115593;28;20276;-75
2023/05/06 07:06:44;;;;;;;11.83;3.50;;;;;;;;;;5115485;28;20292;-73
2023/05/06 07:09:12;;;;;;;8.23;3.83;;;;;;;;;;5116185;28;20563;-76
2023/05/06 07:11:39;;;;;;;8.00;3.10;;;;;;;;;;5115352;28;20194;-74
2023/05/06 07:14:07;;;;;;;8.93;3.47;;;;;;;;;;5115207;28;20284;-74
2023/05/06 07:16:34;;;;;;;7.03;3.30;;;;;;;;;;5115389;28;20189;-75
2023/05/06 07:19:01;;;;;;;9.57;3.67;;;;;;;;;;5115172;28;20284;-74
2023/05/06 07:21:31;;;;;;;8.27;3.10;;;;;;;;;;5115515;27;20276;-75
2023/05/06 07:23:59;;;;;;;8.17;3.03;;;;;;;;;;5115400;28;20314;-75
2023/05/06 07:26:27;;;;;;;6.13;2.60;;;;;;;;;;5115543;28;20685;-75
2023/05/06 07:28:54;;;;;;;8.23;3.30;;;;;;;;;;5115215;28;20280;-75
2023/05/06 07:31:21;;;;;;;10.97;3.53;;;;;;;;;;5115143;28;20261;-74
2023/05/06 07:33:48;;;;;;;10.50;3.03;;;;;;;;;;5115132;28;20197;-75
2023/05/06 07:36:16;;;;;;;8.43;3.00;;;;;;;;;;5114830;28;20293;-74
2023/05/06 07:38:43;;;;;;;9.40;3.07;;;;;;;;;;5114854;28;20272;-74
2023/05/06 07:41:11;;;;;;;6.60;3.20;;;;;;;;;;5115085;28;20198;-75
2023/05/06 07:43:39;;;;;;;8.73;3.57;;;;;;;;;;5114843;28;20257;-74
2023/05/06 07:46:06;;;;;;;7.80;3.40;;;;;;;;;;5114790;27;20342;-74
2023/05/06 07:48:33;;;;;;;7.40;2.70;;;;;;;;;;5114831;27;20189;-73
2023/05/06 07:51:00;;;;;;;9.97;2.83;;;;;;;;;;5114450;28;20278;-74
2023/05/06 07:53:28;;;;;;;7.35;2.67;;;;;;;;;;5114871;28;20260;-74
2023/05/06 07:56:00;;;;;;;8.85;3.15;;;;;;;;;;5115119;28;20280;-74
2023/05/06 07:58:29;;;;;;;7.45;2.63;;;;;;;;;;5114400;27;20202;-75
2023/05/06 08:00:56;;;;;;;7.47;3.10;;;;;;;;;;5114718;28;20284;-74
2023/05/06 08:03:23;;;;;;;7.88;2.97;;;;;;;;;;5114552;28;20276;-75
2023/05/06 08:05:50;;;;;;;10.47;3.43;;;;;;;;;;5114235;28;20672;-76
2023/05/06 08:08:18;;;;;;;11.93;3.47;;;;;;;;;;5114630;28;20199;-75
2023/05/06 08:10:45;;;;;;;8.57;3.03;;;;;;;;;;5113997;28;20242;-74
2023/05/06 08:13:12;;;;;;;7.80;3.20;;;;;;;;;;5113316;28;20194;-75
2023/05/06 08:15:41;;;;;;;6.93;3.23;;;;;;;;;;5114239;28;20225;-75
2023/05/06 08:18:08;;;;;;;9.73;3.37;;;;;;;;;;5114244;27;20194;-75
2023/05/06 08:20:35;;;;;;;7.20;3.63;;;;;;;;;;5114159;28;20387;-75
2023/05/06 08:23:02;;;;;;;9.60;3.57;;;;;;;;;;5114304;28;20280;-75
2023/05/06 08:25:30;;;;;;;9.10;3.57;;;;;;;;;;5114091;27;20236;-74
2023/05/06 08:27:57;;;;;;;7.97;3.30;;;;;;;;;;5113982;28;20229;-77
2023/05/06 08:30:24;;;;;;;8.00;3.00;;;;;;;;;;5113223;28;20721;-75
2023/05/06 08:32:53;;;;;;;6.93;3.33;;;;;;;;;;5111066;28;20221;-75
2023/05/06 08:35:20;;;;;;;6.30;2.93;;;;;;;;;;5096983;28;20651;-76
2023/05/06 08:37:47;;;;;;;6.80;3.27;;;;;;;;;;5108086;27;20294;-74
2023/05/06 08:40:17;;;;;;;9.37;3.63;;;;;;;;;;5101730;28;20285;-74
2023/05/06 08:42:46;;;;;;;6.90;3.43;;;;;;;;;;5111173;28;20225;-74
2023/05/06 08:45:13;;;;;;;9.60;3.60;;;;;;;;;;5109987;28;20283;-75
2023/05/06 08:47:41;;;;;;;8.10;3.33;;;;;;;;;;5105466;28;20205;-75
2023/05/06 08:50:10;;;;;;;9.03;3.73;;;;;;;;;;5107806;28;20260;-75
2023/05/06 08:52:38;;;;;;;8.07;3.90;;;;;;;;;;5112601;28;20280;-75
2023/05/06 08:55:05;;;;;;;7.07;3.17;;;;;;;;;;5113416;28;20189;-75
2023/05/06 08:57:34;;;;;;;8.00;3.93;;;;;;;;;;5113156;28;20186;-75
2023/05/06 09:00:01;;;;;;;8.23;4.20;;;;;;;;;;5112713;28;20292;-75
2023/05/06 09:02:29;;;;;;;10.27;3.90;;;;;;;;;;5101249;28;20323;-76
2023/05/06 09:04:56;;;;;;;6.97;3.87;;;;;;;;;;5094238;28;20289;-75
2023/05/06 09:07:25;;;;;;;8.23;4.00;;;;;;;;;;5104415;28;20195;-76
2023/05/06 09:09:52;;;;;;;8.40;3.63;;;;;;;;;;5093380;28;20698;-75
2023/05/06 09:12:19;;;;;;;11.63;3.97;;;;;;;;;;5113199;28;20280;-75
2023/05/06 09:14:49;;;;;;;8.90;3.30;;;;;;;;;;5112288;28;20296;-75
2023/05/06 09:17:22;;;;;;;11.73;4.30;;;;;;;;;;5113351;28;20261;-75
2023/05/06 09:19:50;;;;;;;10.50;3.43;;;;;;;;;;5113176;28;20285;-74
2023/05/06 09:22:17;;;;;;;7.77;2.67;;;;;;;;;;5092012;28;20682;-75
2023/05/06 09:24:46;;;;;;;7.63;2.90;;;;;;;;;;5091327;28;20229;-75
2023/05/06 09:27:14;;;;;;;7.80;2.77;;;;;;;;;;5092558;28;20237;-76
2023/05/06 09:29:59;;;;;;;7.20;2.63;;;;;;;;;;5092665;28;20302;-75
2023/05/06 09:32:26;;;;;;;8.83;2.73;;;;;;;;;;5097100;28;20196;-76
2023/05/06 09:34:53;;;;;;;4.60;2.37;;;;;;;;;;5112598;28;20289;-76
2023/05/06 09:37:20;;;;;;;7.80;2.37;;;;;;;;;;5113907;27;20232;-76
2023/05/06 09:39:49;;;;;;;6.33;2.37;;;;;;;;;;5113523;27;20203;-75
2023/05/06 09:42:16;;;;;;;8.50;4.47;;;;;;;;;;5106520;28;20720;-75
2023/05/06 09:44:44;;;;;;;8.47;3.30;;;;;;;;;;5109883;27;20253;-76
2023/05/06 09:47:11;;;;;;;9.90;4.13;;;;;;;;;;5117863;27;20272;-78
2023/05/06 09:49:40;;;;;;;8.02;3.10;;;;;;;;;;5117601;27;20193;-75
2023/05/06 09:52:07;;;;;;;8.15;2.70;;;;;;;;;;5108922;27;20233;-75
2023/05/06 09:54:35;;;;;;;5.32;2.42;;;;;;;;;;5107171;27;20289;-76
2023/05/06 09:57:05;;;;;;;5.85;2.30;;;;;;;;;;5108702;27;20741;-75
2023/05/06 09:59:33;;;;;;;10.85;6.93;;;;;;;;;;5110449;28;20251;-75
2023/05/06 10:02:01;;;;;;;9.35;5.80;;;;;;;;;;5113786;27;20202;-75
2023/05/06 10:04:30;;;;;;;7.15;2.80;;;;;;;;;;5111820;27;20259;-75
2023/05/06 10:06:59;;;;;;;6.28;2.15;;;;;;;;;;5103642;28;20198;-76
2023/05/06 10:09:27;;;;;;;7.28;2.60;;;;;;;;;;5108809;28;20604;-77
2023/05/06 10:11:54;;;;;;;8.52;2.20;;;;;;;;;;5108202;28;20279;-75
2023/05/06 10:14:23;;;;;;;7.38;2.30;;;;;;;;;;5111085;27;20233;-75
2023/05/06 10:16:51;;;;;;;6.50;1.80;;;;;;;;;;5108285;28;20255;-75
2023/05/06 10:19:22;;;;;;;5.72;2.15;;;;;;;;;;5109149;28;20225;-75
2023/05/06 10:21:52;;;;;;;4.95;1.90;;;;;;;;;;5111326;28;20248;-76
2023/05/06 10:24:23;;;;;;;4.80;1.80;;;;;;;;;;5110171;28;20783;-75
2023/05/06 10:26:51;;;;;;;7.22;2.33;;;;;;;;;;5108683;28;20269;-76
2023/05/06 10:29:19;;;;;;;5.07;1.77;;;;;;;;;;5107838;28;20284;-76
2023/05/06 10:31:49;;;;;;;4.25;1.88;;;;;;;;;;5110191;28;20233;-75
2023/05/06 10:34:20;;;;;;;6.55;1.98;;;;;;;;;;5107202;28;20601;-76
2023/05/06 10:36:48;;;;;;;4.53;1.80;;;;;;;;;;5104240;28;20278;-75
2023/05/06 10:39:15;;;;;;;5.63;2.08;;;;;;;;;;5111247;28;20285;-73
2023/05/06 10:41:42;;;;;;;6.35;1.80;;;;;;;;;;5110078;28;20202;-75
2023/05/06 10:44:09;;;;;;;6.32;1.73;;;;;;;;;;5110216;28;20321;-76
2023/05/06 10:46:52;;;;;;;5.57;1.90;;;;;;;;;;5111252;28;20666;-75
2023/05/06 10:49:21;;;;;;;5.93;2.17;;;;;;;;;;5111130;28;20280;-76
2023/05/06 10:51:48;;;;;;;5.75;2.25;;;;;;;;;;5103024;28;20309;-74
2023/05/06 10:54:24;;;;;;;4.18;1.55;;;;;;;;;;5108905;28;20200;-74
2023/05/06 10:57:10;;;;;;;5.32;2.15;;;;;;;;;;5111322;28;20189;-77
2023/05/06 10:59:37;;;;;;;4.43;1.90;;;;;;;;;;5105085;28;20197;-75
2023/05/06 11:02:10;;;;;;;4.95;1.80;;;;;;;;;;5111578;28;20672;-75
2023/05/06 11:04:39;;;;;;;4.15;1.63;;;;;;;;;;5110987;28;20201;-76
2023/05/06 11:07:11;;;;;;;3.80;1.90;;;;;;;;;;5111196;28;20305;-76
2023/05/06 11:09:57;;;;;;;3.95;1.73;;;;;;;;;;5107154;28;20660;-76
2023/05/06 11:12:39;;;;;;;5.72;2.00;;;;;;;;;;5111456;28;20316;-76
2023/05/06 11:15:19;;;;;;;6.93;1.95;;;;;;;;;;5111258;28;20202;-75
2023/05/06 11:17:46;;;;;;;4.85;1.65;;;;;;;;;;5111462;28;20200;-75
2023/05/06 11:20:22;;;;;;;4.15;2.00;;;;;;;;;;5111913;28;20285;-76
2023/05/06 11:22:50;;;;;;;5.28;1.77;;;;;;;;;;5111637;28;20201;-75
2023/05/06 11:25:32;;;;;;;6.32;2.20;;;;;;;;;;5103648;28;20199;-76
2023/05/06 11:27:59;;;;;;;6.70;2.00;;;;;;;;;;5108624;28;20759;-75
2023/05/06 11:30:26;;;;;;;6.63;2.00;;;;;;;;;;5106096;28;20219;-75
2023/05/06 11:32:54;;;;;;;6.03;2.03;;;;;;;;;;5103523;28;20750;-75
2023/05/06 11:35:25;;;;;;;6.43;1.90;;;;;;;;;;5108322;28;20190;-75
2023/05/06 11:37:52;;;;;;;6.38;1.90;;;;;;;;;;5111224;28;20700;-76
2023/05/06 11:40:19;;;;;;;7.35;2.05;;;;;;;;;;5110791;28;20293;-76
2023/05/06 11:42:46;;;;;;;6.38;2.08;;;;;;;;;;5111185;28;20249;-76
2023/05/06 11:45:13;;;;;;;5.55;2.08;;;;;;;;;;5112683;28;20225;-76
2023/05/06 11:47:44;;;;;;;6.75;1.92;;;;;;;;;;5113319;28;20363;-76
2023/05/06 11:50:11;;;;;;;6.43;1.92;;;;;;;;;;5115049;28;20217;-75
2023/05/06 11:52:40;;;;;;;4.45;1.80;;;;;;;;;;5114142;28;20221;-75
2023/05/06 11:55:09;;;;;;;5.97;2.15;;;;;;;;;;5132387;27;20205;-76
2023/05/06 11:57:36;;;;;;;4.40;1.77;;;;;;;;;;5135452;27;20275;-76
2023/05/06 12:00:06;;;;;;;5.20;1.92;;;;;;;;;;5135569;27;20280;-76
2023/05/06 12:02:33;;;;;;;4.72;1.70;;;;;;;;;;5124714;27;20625;-76
2023/05/06 12:05:03;;;;;;;6.05;1.83;;;;;;;;;;5120748;27;20246;-76
2023/05/06 12:07:31;;;;;;;3.85;1.67;;;;;;;;;;5110481;27;20199;-77
2023/05/06 12:10:02;;;;;;;5.25;1.75;;;;;;;;;;5113913;28;20250;-77
2023/05/06 12:12:32;;;;;;;5.85;1.90;;;;;;;;;;5117061;27;20225;-77
2023/05/06 12:14:59;;;;;;;5.63;2.20;;;;;;;;;;5118379;27;20630;-78
2023/05/06 12:17:26;;;;;;;6.07;1.73;;;;;;;;;;5110679;27;20194;-78
2023/05/06 12:19:53;;;;;;;9.55;3.97;;;;;;;;;;5114363;28;20284;-78
2023/05/06 12:22:23;;;;;;;7.00;2.08;;;;;;;;;;5113766;28;20670;-77
2023/05/06 12:24:50;;;;;;;4.45;1.80;;;;;;;;;;5113631;28;20201;-76
2023/05/06 12:27:30;;;;;;;4.90;2.08;;;;;;;;;;5114494;27;20196;-79
2023/05/06 12:29:57;;;;;;;7.03;2.80;;;;;;;;;;5110067;28;20752;-79
2023/05/06 12:32:24;;;;;;;7.13;3.00;;;;;;;;;;5110285;28;20233;-79
2023/05/06 12:34:52;;;;;;;10.07;4.00;;;;;;;;;;5114056;28;20243;-79
2023/05/06 12:37:25;;;;;;;5.60;2.20;;;;;;;;;;5112520;28;20289;-79
2023/05/06 12:39:53;;;;;;;10.48;6.60;;;;;;;;;;5107032;28;20197;-79
2023/05/06 12:42:20;;;;;;;15.52;11.15;;;;;;;;;;5112007;28;20236;-79
2023/05/06 12:44:49;;;;;;;8.70;5.57;;;;;;;;;;5111372;28;20225;-79
2023/05/06 12:47:19;;;;;;;14.27;8.30;;;;;;;;;;5108886;28;20210;-79
2023/05/06 12:49:47;;;;;;;6.53;3.53;;;;;;;;;;5111531;28;20580;-79
2023/05/06 12:52:15;;;;;;;8.27;3.78;;;;;;;;;;5111625;28;21127;-76
2023/05/06 12:54:42;;;;;;;6.72;2.45;;;;;;;;;;5100642;28;20229;-78
2023/05/06 12:57:10;;;;;;;5.25;1.70;;;;;;;;;;5112632;28;20194;-79
2023/05/06 12:59:37;;;;;;;5.00;1.80;;;;;;;;;;5112455;28;20225;-79
2023/05/06 13:02:06;;;;;;;5.47;1.73;;;;;;;;;;5104426;28;20628;-78
2023/05/06 13:04:33;;;;;;;4.95;1.70;;;;;;;;;;5093069;28;20225;-79
2023/05/06 13:07:00;;;;;;;5.47;1.83;;;;;;;;;;5092976;28;20281;-79
2023/05/06 13:09:27;;;;;;;5.95;1.92;;;;;;;;;;5111810;28;20231;-78
2023/05/06 13:11:55;;;;;;;4.88;1.65;;;;;;;;;;5110311;27;20324;-78
2023/05/06 13:14:22;;;;;;;4.82;1.70;;;;;;;;;;5107594;28;20201;-78
2023/05/06 13:16:49;;;;;;;7.40;1.80;;;;;;;;;;5103073;28;20199;-80
2023/05/06 13:19:18;;;;;;;4.28;1.67;;;;;;;;;;5102833;28;20642;-81
2023/05/06 13:21:46;;;;;;;5.28;1.70;;;;;;;;;;5092423;28;20222;-80
2023/05/06 13:24:13;;;;;;;7.25;1.80;;;;;;;;;;5098982;28;20294;-81
2023/05/06 13:26:40;;;;;;;6.88;2.30;;;;;;;;;;5112412;28;20670;-80
2023/05/06 13:29:07;;;;;;;5.75;1.70;;;;;;;;;;5110864;28;20285;-80
2023/05/06 13:31:35;;;;;;;4.65;1.90;;;;;;;;;;5113074;28;20277;-80
2023/05/06 13:34:02;;;;;;;6.20;2.22;;;;;;;;;;5110858;28;20288;-80
2023/05/06 13:36:31;;;;;;;5.47;2.20;;;;;;;;;;5112931;27;20605;-80
2023/05/06 13:38:58;;;;;;;7.22;2.70;;;;;;;;;;5112876;28;20233;-81
2023/05/06 13:41:25;;;;;;;8.45;2.25;;;;;;;;;;5112900;28;20661;-81
2023/05/06 13:43:53;;;;;;;7.38;1.85;;;;;;;;;;5112306;28;20794;-80
2023/05/06 13:46:20;;;;;;;6.32;2.15;;;;;;;;;;5112822;28;20598;-81
2023/05/06 13:48:47;;;;;;;7.60;2.28;;;;;;;;;;5112388;28;20570;-81
2023/05/06 13:51:14;;;;;;;7.10;2.28;;;;;;;;;;5112855;28;20281;-80
2023/05/06 13:53:43;;;;;;;7.03;1.98;;;;;;;;;;5125626;27;20304;-80
2023/05/06 13:56:10;;;;;;;6.43;2.08;;;;;;;;;;5132806;27;20232;-81
2023/05/06 13:58:37;;;;;;;7.30;2.20;;;;;;;;;;5132879;27;20280;-81
2023/05/06 14:01:04;;;;;;;7.38;2.20;;;;;;;;;;5132879;27;20716;-81
2023/05/06 14:03:32;;;;;;;7.28;2.33;;;;;;;;;;5132784;27;20602;-80
2023/05/06 14:06:00;;;;;;;6.32;2.45;;;;;;;;;;5132907;27;20300;-81
2023/05/06 14:08:27;;;;;;;5.75;2.05;;;;;;;;;;5133030;27;20199;-80
2023/05/06 14:10:55;;;;;;;6.95;1.90;;;;;;;;;;5131356;27;20200;-80
2023/05/06 14:13:23;;;;;;;5.25;1.85;;;;;;;;;;5129892;27;20228;-80
2023/05/06 14:15:50;;;;;;;5.72;1.90;;;;;;;;;;5112374;28;20292;-81
2023/05/06 14:18:17;;;;;;;5.80;2.20;;;;;;;;;;5111451;28;20284;-81
2023/05/06 14:20:44;;;;;;;6.53;1.90;;;;;;;;;;5111071;28;20218;-80
2023/05/06 14:23:12;;;;;;;8.68;2.10;;;;;;;;;;5111563;28;20194;-81
2023/05/06 14:25:39;;;;;;;3.80;1.90;;;;;;;;;;5111203;28;20729;-81
2023/05/06 14:28:09;;;;;;;6.10;1.80;;;;;;;;;;5111657;27;20292;-81
2023/05/06 14:30:36;;;;;;;3.80;1.73;;;;;;;;;;5110424;28;20229;-81
2023/05/06 14:33:03;;;;;;;7.60;2.55;;;;;;;;;;5111108;28;20214;-80
2023/05/06 14:35:30;;;;;;;6.88;2.40;;;;;;;;;;5111641;28;20196;-81
2023/05/06 14:37:58;;;;;;;6.28;2.08;;;;;;;;;;5111729;28;20236;-81
2023/05/06 14:40:25;;;;;;;6.00;2.40;;;;;;;;;;5112091;28;20222;-81